Time;durP1;ratioP1;P1;durP2;ratioP2;P2;SDS_P1;SDS_P2;PMS_P1;PMS_P2;Temp;Humidity;BMP_temperature;BMP_pressure;BME280_temperature;BME280_humidity;BME280_pressure;Samples;Min_cycle;Max_cycle;Signal;HPM_P1;HPM_P2
2021/04/12 00:00:08;;;;;;;6.40;5.70;;;;;;;3.87;100.00;96193.00;4996494;28;20976;-86
2021/04/12 00:02:37;;;;;;;6.30;5.47;;;;;;;3.77;100.00;96192.63;5002015;28;20500;-86
2021/04/12 00:05:14;;;;;;;7.30;5.43;;;;;;;3.62;100.00;96216.25;5001395;28;20926;-86
2021/04/12 00:07:47;;;;;;;6.33;4.93;;;;;;;3.50;100.00;96204.97;5000290;28;20555;-86
2021/04/12 00:10:27;;;;;;;5.13;4.60;;;;;;;3.53;100.00;96195.97;5001034;28;20417;-86
2021/04/12 00:12:58;;;;;;;5.60;4.40;;;;;;;3.40;100.00;96195.09;5000437;28;20476;-86
2021/04/12 00:15:29;;;;;;;6.30;4.83;;;;;;;3.36;100.00;96183.97;5001192;28;20500;-86
2021/04/12 00:18:00;;;;;;;4.63;3.97;;;;;;;3.37;100.00;96196.06;5001312;28;20421;-86
2021/04/12 00:20:32;;;;;;;6.00;5.10;;;;;;;3.18;100.00;96194.03;5001738;28;20505;-86
2021/04/12 00:23:03;;;;;;;5.40;4.80;;;;;;;3.30;100.00;96208.00;5000341;28;20945;-86
2021/04/12 00:25:35;;;;;;;5.60;4.50;;;;;;;3.18;100.00;96217.28;5000498;28;20513;-85
2021/04/12 00:28:07;;;;;;;5.10;4.50;;;;;;;3.20;100.00;96225.50;5000669;28;20461;-87
2021/04/12 00:30:37;;;;;;;5.50;4.10;;;;;;;3.24;100.00;96232.03;4999979;28;20869;-86
2021/04/12 00:33:09;;;;;;;7.40;5.53;;;;;;;3.09;100.00;96242.28;4998904;28;20536;-87
2021/04/12 00:35:38;;;;;;;4.60;4.10;;;;;;;3.31;100.00;96244.13;4999268;28;20571;-87
2021/04/12 00:38:11;;;;;;;5.63;4.93;;;;;;;3.17;100.00;96245.88;4999847;28;20445;-87
2021/04/12 00:40:44;;;;;;;6.57;5.43;;;;;;;3.13;100.00;96240.06;5000246;28;20993;-87
2021/04/12 00:43:25;;;;;;;6.20;4.53;;;;;;;3.02;100.00;96242.09;5000490;28;20473;-87
2021/04/12 00:46:07;;;;;;;5.50;4.73;;;;;;;3.09;100.00;96254.91;5001180;28;20968;-87
2021/04/12 00:48:58;;;;;;;5.90;4.87;;;;;;;3.06;100.00;96266.53;5000655;28;20418;-87
2021/04/12 00:51:35;;;;;;;5.57;4.43;;;;;;;2.99;100.00;96267.78;5000590;28;20457;-88
2021/04/12 00:54:34;;;;;;;7.40;5.37;;;;;;;2.95;100.00;96275.28;4998981;28;20422;-87
2021/04/12 00:57:07;;;;;;;9.20;5.00;;;;;;;2.85;100.00;96284.78;4966494;28;20541;-87
2021/04/12 00:59:44;;;;;;;7.20;5.30;;;;;;;2.95;100.00;96293.22;4999764;28;20459;-87
2021/04/12 01:02:26;;;;;;;9.20;5.97;;;;;;;2.93;100.00;96288.41;4999120;28;20469;-87
2021/04/12 01:04:59;;;;;;;5.93;5.23;;;;;;;2.93;100.00;96293.72;4999670;28;20471;-87
2021/04/12 01:08:10;;;;;;;5.47;4.87;;;;;;;2.77;100.00;96296.44;4999263;28;20433;-87
2021/04/12 01:11:23;;;;;;;8.77;6.33;;;;;;;2.86;100.00;96288.16;4961152;28;20493;-87
2021/04/12 01:14:10;;;;;;;6.57;5.50;;;;;;;2.92;100.00;96286.94;4999046;28;20433;-87
2021/04/12 01:16:46;;;;;;;10.27;5.90;;;;;;;2.91;100.00;96296.16;4998859;28;20563;-87
2021/04/12 01:19:52;;;;;;;11.43;6.17;;;;;;;2.83;100.00;96308.53;4999731;28;20453;-87
2021/04/12 01:22:57;;;;;;;8.77;6.83;;;;;;;2.77;100.00;96313.16;5006335;28;20902;-88
2021/04/12 01:25:57;;;;;;;8.33;6.40;;;;;;;2.77;100.00;96307.81;5011567;28;20439;-87
2021/04/12 01:28:59;;;;;;;8.37;5.73;;;;;;;2.81;100.00;96304.91;4977740;28;20477;-88
2021/04/12 01:32:05;;;;;;;8.03;6.27;;;;;;;2.79;100.00;96318.00;5000459;28;20493;-87
2021/04/12 01:35:08;;;;;;;8.17;5.90;;;;;;;2.62;100.00;96326.03;5000273;28;20441;-88
2021/04/12 01:37:43;;;;;;;9.43;6.70;;;;;;;2.57;100.00;96332.06;5000022;28;20444;-88
2021/04/12 01:40:24;;;;;;;11.10;6.70;;;;;;;2.58;100.00;96336.91;4999853;28;20426;-88
2021/04/12 01:42:55;;;;;;;7.57;5.90;;;;;;;2.54;100.00;96338.38;5000143;28;20460;-88
2021/04/12 01:45:41;;;;;;;7.97;6.33;;;;;;;2.47;100.00;96328.97;4999480;28;20883;-88
2021/04/12 01:48:25;;;;;;;8.10;5.87;;;;;;;2.52;100.00;96336.19;5000253;28;20940;-87
2021/04/12 01:51:14;;;;;;;12.30;7.10;;;;;;;2.43;100.00;96346.38;4999569;28;20491;-87
2021/04/12 01:53:58;;;;;;;9.80;6.53;;;;;;;2.48;100.00;96340.31;4999883;28;20533;-87
2021/04/12 01:56:39;;;;;;;8.00;6.30;;;;;;;2.40;100.00;96344.69;4999506;28;20495;-87
2021/04/12 01:59:38;;;;;;;8.87;6.50;;;;;;;2.41;100.00;96362.81;4997826;28;20435;-87
2021/04/12 02:02:20;;;;;;;9.83;7.20;;;;;;;2.40;100.00;96358.72;4983022;28;20469;-88
2021/04/12 02:05:04;;;;;;;10.67;8.30;;;;;;;2.45;100.00;96373.22;4997986;28;20972;-87
2021/04/12 02:07:41;;;;;;;11.47;7.00;;;;;;;2.28;100.00;96391.88;4997881;28;20410;-88
2021/04/12 02:10:26;;;;;;;9.53;6.67;;;;;;;2.46;100.00;96399.38;4997449;28;21003;-88
2021/04/12 02:13:01;;;;;;;8.90;6.63;;;;;;;2.41;100.00;96410.03;4998189;28;20483;-87
2021/04/12 02:15:45;;;;;;;9.90;6.43;;;;;;;2.40;100.00;96401.31;4997609;28;20564;-88
2021/04/12 02:18:29;;;;;;;8.10;6.57;;;;;;;2.36;100.00;96390.19;4996752;28;20450;-87
2021/04/12 02:21:00;;;;;;;8.67;6.90;;;;;;;2.48;100.00;96401.56;4997539;28;20508;-88
2021/04/12 02:23:41;;;;;;;10.50;6.40;;;;;;;2.41;100.00;96402.06;4997936;28;20584;-87
2021/04/12 02:26:24;;;;;;;9.43;7.33;;;;;;;2.53;100.00;96406.91;4998014;28;20436;-88
2021/04/12 02:29:01;;;;;;;10.90;8.00;;;;;;;2.53;100.00;96406.16;4997523;28;20433;-87
2021/04/12 02:31:42;;;;;;;10.40;7.57;;;;;;;2.51;100.00;96408.56;4997845;28;20548;-87
2021/04/12 02:34:20;;;;;;;9.87;8.07;;;;;;;2.45;100.00;96411.25;4997598;28;20516;-86
2021/04/12 02:37:06;;;;;;;9.93;7.50;;;;;;;2.48;100.00;96414.88;4997308;28;20551;-87
2021/04/12 02:39:45;;;;;;;9.20;6.53;;;;;;;2.43;100.00;96419.00;4997154;28;20524;-87
2021/04/12 02:42:21;;;;;;;10.67;7.70;;;;;;;2.35;100.00;96417.31;5017669;28;20453;-86
2021/04/12 02:45:15;;;;;;;13.07;7.70;;;;;;;2.26;100.00;96422.84;5018066;28;20464;-87
2021/04/12 02:48:02;;;;;;;9.93;7.80;;;;;;;2.29;100.00;96433.25;4994477;28;20543;-85
2021/04/12 02:50:52;;;;;;;9.90;7.83;;;;;;;2.31;100.00;96433.50;4998476;28;20512;-85
2021/04/12 02:53:41;;;;;;;11.80;7.97;;;;;;;2.26;100.00;96436.16;4998755;28;20966;-86
2021/04/12 02:56:26;;;;;;;11.90;8.03;;;;;;;2.48;100.00;96449.47;4998645;28;20515;-87
2021/04/12 02:59:24;;;;;;;11.37;7.97;;;;;;;2.53;100.00;96443.44;4998485;28;20516;-87
2021/04/12 03:02:05;;;;;;;13.10;8.90;;;;;;;2.47;100.00;96440.06;5000073;28;20461;-87
2021/04/12 03:04:46;;;;;;;12.10;8.37;;;;;;;2.53;100.00;96438.84;5001496;28;20421;-87
2021/04/12 03:07:46;;;;;;;12.57;8.77;;;;;;;2.52;100.00;96442.00;5000130;28;20501;-87
2021/04/12 03:10:24;;;;;;;11.30;8.57;;;;;;;2.50;100.00;96455.06;4997039;28;20481;-87
2021/04/12 03:13:23;;;;;;;11.30;8.20;;;;;;;2.51;100.00;96461.81;4998923;28;20469;-86
2021/04/12 03:16:03;;;;;;;12.33;8.50;;;;;;;2.64;100.00;96462.06;4999421;28;20512;-86
2021/04/12 03:18:55;;;;;;;12.73;8.27;;;;;;;2.46;100.00;96462.56;4998026;28;20430;-86
2021/04/12 03:21:46;;;;;;;10.33;6.80;;;;;;;2.49;100.00;96474.91;4997803;28;20441;-84
2021/04/12 03:24:21;;;;;;;11.67;7.03;;;;;;;2.52;100.00;96487.97;4998638;28;20468;-85
2021/04/12 03:27:13;;;;;;;12.63;7.20;;;;;;;2.51;100.00;96491.13;4997799;28;20788;-85
2021/04/12 03:29:45;;;;;;;10.97;8.10;;;;;;;2.28;100.00;96479.72;4997864;28;20508;-86
2021/04/12 03:32:33;;;;;;;9.63;7.47;;;;;;;2.24;100.00;96473.91;4998410;28;20472;-85
2021/04/12 03:35:05;;;;;;;12.50;7.53;;;;;;;2.28;100.00;96477.06;4999469;28;20835;-85
2021/04/12 03:37:42;;;;;;;13.80;9.37;;;;;;;2.32;100.00;96484.81;5001875;28;20427;-86
2021/04/12 03:40:19;;;;;;;12.17;8.53;;;;;;;2.27;100.00;96470.28;5002223;28;20445;-86
2021/04/12 03:43:05;;;;;;;11.73;7.67;;;;;;;2.19;100.00;96476.56;5001491;28;20488;-85
2021/04/12 03:45:55;;;;;;;12.00;7.93;;;;;;;2.25;100.00;96488.69;5000925;28;20515;-86
2021/04/12 03:48:42;;;;;;;11.73;7.53;;;;;;;2.27;100.00;96502.22;5001696;28;20429;-85
2021/04/12 03:51:28;;;;;;;13.03;8.40;;;;;;;2.36;100.00;96503.94;5001641;28;20437;-85
2021/04/12 03:54:18;;;;;;;11.87;8.00;;;;;;;2.37;100.00;96508.78;5001676;28;20471;-85
2021/04/12 03:57:03;;;;;;;13.90;8.10;;;;;;;2.33;100.00;96499.56;5002090;28;20481;-85
2021/04/12 03:59:38;;;;;;;10.50;7.70;;;;;;;2.33;100.00;96513.59;5001685;28;20506;-87
2021/04/12 04:02:28;;;;;;;11.53;8.27;;;;;;;2.29;100.00;96523.75;5001993;28;20496;-85
2021/04/12 04:05:18;;;;;;;11.97;8.37;;;;;;;2.19;100.00;96530.53;5001382;28;20504;-86
2021/04/12 04:08:18;;;;;;;12.60;7.77;;;;;;;2.11;100.00;96542.81;5000431;28;20406;-86
2021/04/12 04:11:30;;;;;;;10.70;7.67;;;;;;;2.17;100.00;96541.63;5001835;28;20871;-85
2021/04/12 04:14:10;;;;;;;11.13;7.10;;;;;;;2.28;100.00;96545.53;4967116;28;20447;-86
2021/04/12 04:16:48;;;;;;;12.67;7.67;;;;;;;2.26;100.00;96534.63;4999995;28;20556;-86
2021/04/12 04:19:28;;;;;;;12.07;8.37;;;;;;;2.21;100.00;96543.34;4999984;28;20528;-86
2021/04/12 04:22:19;;;;;;;15.17;8.63;;;;;;;2.27;100.00;96552.78;4999793;28;20522;-87
2021/04/12 04:25:19;;;;;;;17.40;9.07;;;;;;;2.23;100.00;96549.63;5000499;28;20899;-86
2021/04/12 04:28:09;;;;;;;15.97;10.27;;;;;;;2.25;100.00;96547.22;4968441;28;21007;-87
2021/04/12 04:30:58;;;;;;;16.67;9.87;;;;;;;2.28;100.00;96556.19;5001241;28;20958;-87
2021/04/12 04:33:42;;;;;;;17.40;11.00;;;;;;;2.20;100.00;96555.19;5003220;28;20533;-87
2021/04/12 04:36:25;;;;;;;17.10;10.90;;;;;;;2.40;100.00;96571.72;5009752;28;20501;-87
2021/04/12 04:39:41;;;;;;;14.97;10.60;;;;;;;2.45;100.00;96575.59;5006985;28;20491;-87
2021/04/12 04:42:49;;;;;;;17.07;10.10;;;;;;;2.36;100.00;96595.16;5005549;28;20567;-88
2021/04/12 04:45:30;;;;;;;14.93;10.40;;;;;;;2.38;100.00;96581.41;5000939;28;21021;-88
2021/04/12 04:48:27;;;;;;;14.20;8.60;;;;;;;2.32;100.00;96596.63;5001193;28;20523;-88
2021/04/12 04:51:16;;;;;;;15.70;9.60;;;;;;;2.22;100.00;96600.69;5001144;28;20440;-87
2021/04/12 04:54:01;;;;;;;17.53;11.67;;;;;;;2.23;100.00;96605.53;5001350;28;20632;-87
2021/04/12 04:56:35;;;;;;;13.17;9.20;;;;;;;2.30;100.00;96605.06;5001866;28;20469;-87
2021/04/12 04:59:26;;;;;;;12.63;8.60;;;;;;;2.37;100.00;96612.59;5001663;28;20547;-85
2021/04/12 05:02:18;;;;;;;12.50;8.10;;;;;;;2.26;100.00;96614.47;5001467;28;20465;-86
2021/04/12 05:05:23;;;;;;;10.60;8.03;;;;;;;2.33;100.00;96624.69;4998637;28;20508;-87
2021/04/12 05:08:19;;;;;;;11.17;7.90;;;;;;;2.31;100.00;96619.13;4991695;28;20536;-88
2021/04/12 05:11:04;;;;;;;9.83;6.77;;;;;;;2.33;100.00;96619.34;4992798;28;20453;-88
2021/04/12 05:13:48;;;;;;;10.30;6.70;;;;;;;2.17;100.00;96626.06;5001046;28;20471;-88
2021/04/12 05:16:40;;;;;;;11.37;8.57;;;;;;;2.25;100.00;96637.00;5001151;28;20473;-88
2021/04/12 05:19:40;;;;;;;10.63;7.20;;;;;;;2.31;100.00;96645.72;5001419;28;20492;-86
2021/04/12 05:22:32;;;;;;;9.80;6.50;;;;;;;2.28;100.00;96646.69;5000769;28;20503;-86
2021/04/12 05:25:21;;;;;;;8.70;6.53;;;;;;;2.09;100.00;96654.34;5003335;28;20434;-89
2021/04/12 05:28:48;;;;;;;10.63;7.37;;;;;;;2.06;100.00;96658.69;5001049;28;20493;-89
2021/04/12 05:31:59;;;;;;;13.40;8.27;;;;;;;2.17;100.00;96666.72;5002507;28;20483;-89
2021/04/12 05:34:53;;;;;;;14.47;8.50;;;;;;;2.01;100.00;96678.00;4997067;28;20489;-88
2021/04/12 05:37:55;;;;;;;11.20;8.70;;;;;;;1.98;100.00;96676.28;5002321;28;20440;-88
2021/04/12 05:40:47;;;;;;;13.43;10.10;;;;;;;2.08;100.00;96680.22;4979612;28;20448;-88
2021/04/12 05:43:36;;;;;;;18.90;9.77;;;;;;;2.00;100.00;96673.88;5000861;28;20453;-88
2021/04/12 05:46:33;;;;;;;11.57;8.50;;;;;;;2.18;100.00;96688.75;5001303;28;20440;-88
2021/04/12 05:49:15;;;;;;;15.47;11.30;;;;;;;2.08;100.00;96688.19;5007666;28;20450;-87
2021/04/12 05:52:05;;;;;;;16.97;10.53;;;;;;;2.16;100.00;96699.84;5028450;28;20432;-87
2021/04/12 05:55:08;;;;;;;16.30;10.43;;;;;;;2.10;100.00;96709.00;5038011;28;20408;-86
2021/04/12 05:58:03;;;;;;;15.57;10.40;;;;;;;2.13;100.00;96703.47;5006508;28;20421;-90
2021/04/12 06:00:31;;;;;;;18.77;11.67;;;;;;;2.25;100.00;96717.59;5013978;28;20436;-83
2021/04/12 06:03:16;;;;;;;13.70;10.57;;;;;;;2.31;100.00;96723.66;5020053;28;20468;-84
2021/04/12 06:06:07;;;;;;;18.20;11.27;;;;;;;2.49;100.00;96727.88;5019716;28;20424;-84
2021/04/12 06:08:44;;;;;;;17.40;10.93;;;;;;;2.46;100.00;96726.88;5020302;28;20508;-84
2021/04/12 06:11:42;;;;;;;16.53;11.23;;;;;;;2.44;100.00;96733.91;5019631;28;20422;-83
2021/04/12 06:14:29;;;;;;;17.37;11.30;;;;;;;2.35;100.00;96742.09;5019844;28;20454;-84
2021/04/12 06:17:19;;;;;;;16.03;11.50;;;;;;;2.50;100.00;96742.66;5020798;28;20479;-84
2021/04/12 06:20:23;;;;;;;17.87;11.73;;;;;;;2.56;100.00;96748.72;5022341;28;20455;-93
2021/04/12 06:23:13;;;;;;;14.70;11.30;;;;;;;2.50;100.00;96754.03;5024408;28;20595;-93
2021/04/12 06:25:53;;;;;;;18.07;11.20;;;;;;;2.43;100.00;96759.06;5025503;28;20436;-90
2021/04/12 06:28:43;;;;;;;15.57;12.10;;;;;;;2.51;100.00;96762.72;5023839;28;20443;-92
2021/04/12 06:31:47;;;;;;;14.27;10.17;;;;;;;2.54;100.00;96769.75;5019100;28;20475;-91
2021/04/12 06:34:54;;;;;;;18.63;12.20;;;;;;;2.72;100.00;96776.66;5019897;28;20441;-85
2021/04/12 06:37:39;;;;;;;16.47;10.97;;;;;;;2.70;100.00;96785.84;4991945;28;20487;-84
2021/04/12 06:40:42;;;;;;;17.27;11.73;;;;;;;2.86;100.00;96789.78;5019318;28;20471;-84
2021/04/12 06:43:50;;;;;;;18.63;11.20;;;;;;;3.09;100.00;96790.63;5019082;28;20464;-83
2021/04/12 06:46:43;;;;;;;16.40;10.50;;;;;;;2.99;100.00;96803.44;5019844;28;20527;-85
2021/04/12 06:49:48;;;;;;;18.17;11.70;;;;;;;2.90;100.00;96795.63;5022351;28;20451;-92
2021/04/12 06:53:04;;;;;;;17.03;10.50;;;;;;;2.81;100.00;96805.75;5022096;28;20528;-91
2021/04/12 06:56:07;;;;;;;18.27;10.37;;;;;;;3.00;100.00;96809.50;4949767;28;20488;-91
2021/04/12 06:58:59;;;;;;;12.90;9.60;;;;;;;3.09;100.00;96812.69;5019973;28;20452;-89
2021/04/12 07:02:06;;;;;;;15.43;10.17;;;;;;;3.27;100.00;96816.13;5023088;28;20443;-88
2021/04/12 07:05:08;;;;;;;26.33;11.27;;;;;;;3.32;99.65;96813.47;5019226;28;20476;-88
2021/04/12 07:08:04;;;;;;;15.23;10.60;;;;;;;3.20;98.90;96818.06;5019607;28;20940;-88
2021/04/12 07:11:10;;;;;;;12.50;9.33;;;;;;;3.21;99.92;96830.19;5023360;28;20527;-88
2021/04/12 07:14:11;;;;;;;13.60;10.80;;;;;;;3.41;100.00;96839.22;4998089;28;20484;-89
2021/04/12 07:17:15;;;;;;;15.33;10.60;;;;;;;3.43;100.00;96839.47;5030801;28;20506;-94
2021/04/12 07:20:19;;;;;;;15.67;11.37;;;;;;;3.45;98.60;96847.69;5038361;28;20827;-93
2021/04/12 07:23:29;;;;;;;17.87;12.20;;;;;;;3.43;98.38;96845.53;5041119;28;20460;-92
2021/04/12 07:26:35;;;;;;;;;;;;;;;;;;;;;
2021/04/12 07:29:45;;;;;;;19.10;12.37;;;;;;;3.42;99.16;96862.72;5030023;28;20459;-93
2021/04/12 07:32:49;;;;;;;17.00;11.23;;;;;;;3.48;98.72;96862.75;5024862;28;20459;-88
2021/04/12 07:35:29;;;;;;;22.07;12.63;;;;;;;3.53;98.74;96854.06;5189314;22;20474;-85
2021/04/12 07:38:12;;;;;;;20.80;12.80;;;;;;;3.51;98.89;96859.84;5068068;28;20517;-88
2021/04/12 07:46:12;;;;;;;25.17;15.83;;;;;;;3.53;98.22;96868.13;5063996;28;20482;-89
2021/04/12 07:49:16;;;;;;;19.47;13.53;;;;;;;3.56;98.24;96874.44;5068809;28;20442;-89
2021/04/12 07:52:16;;;;;;;24.13;13.60;;;;;;;3.49;98.65;96891.63;5068338;28;20469;-95
2021/04/12 07:55:14;;;;;;;22.80;14.20;;;;;;;3.64;98.06;96886.09;5069217;28;20454;-88
2021/04/12 07:58:05;;;;;;;21.53;13.60;;;;;;;3.77;98.86;96897.06;5050185;28;20577;-87
2021/04/12 08:01:07;;;;;;;21.37;13.93;;;;;;;3.81;97.42;96905.56;5054832;28;20435;-87
2021/04/12 08:04:13;;;;;;;27.47;15.27;;;;;;;3.86;97.71;96902.16;5065304;28;20461;-91
2021/04/12 08:07:16;;;;;;;21.43;14.60;;;;;;;3.92;96.22;96910.19;5066265;28;20449;-92
2021/04/12 08:09:59;;;;;;;19.80;14.13;;;;;;;4.05;95.97;96908.53;5071000;28;20561;-94
2021/04/12 08:13:03;;;;;;;23.27;14.40;;;;;;;3.94;95.37;96908.50;5069826;28;20478;-93
2021/04/12 08:16:04;;;;;;;23.93;15.57;;;;;;;3.91;96.01;96908.75;5069319;28;20557;-91
2021/04/12 08:19:01;;;;;;;28.90;15.77;;;;;;;4.03;96.17;96916.31;5070854;28;20414;-91
2021/04/12 08:22:01;;;;;;;23.70;15.37;;;;;;;4.17;95.18;96923.34;5066210;28;20477;-92
2021/04/12 08:25:05;;;;;;;26.83;17.57;;;;;;;4.25;95.32;96919.00;5068601;28;20411;-91
2021/04/12 08:28:11;;;;;;;28.73;16.90;;;;;;;4.42;93.79;96918.31;5065064;28;20434;-94
2021/04/12 08:31:24;;;;;;;27.27;15.17;;;;;;;4.04;92.76;96922.38;5064936;28;20452;-88
2021/04/12 08:34:27;;;;;;;24.80;14.80;;;;;;;4.21;94.17;96923.84;5067541;28;20526;-92
2021/04/12 08:37:17;;;;;;;25.60;15.53;;;;;;;4.08;92.53;96928.91;5070253;28;20452;-92
2021/04/12 08:40:20;;;;;;;25.67;15.40;;;;;;;4.22;93.69;96928.00;5062178;28;20843;-87
2021/04/12 08:43:15;;;;;;;28.80;15.67;;;;;;;4.30;92.75;96928.97;5068790;28;20477;-91
2021/04/12 08:46:02;;;;;;;24.33;15.10;;;;;;;4.35;92.85;96924.84;5064071;28;20454;-91
2021/04/12 08:48:50;;;;;;;24.50;14.43;;;;;;;4.30;90.17;96936.97;5064469;28;20411;-88
2021/04/12 08:51:40;;;;;;;20.00;14.10;;;;;;;4.53;90.04;96943.09;5065493;28;20475;-89
2021/04/12 08:54:21;;;;;;;21.40;14.00;;;;;;;4.37;89.58;96943.06;5066480;28;20434;-89
2021/04/12 08:57:32;;;;;;;27.67;16.20;;;;;;;4.27;91.27;96937.94;5066469;28;20550;-91
2021/04/12 09:00:35;;;;;;;20.97;14.13;;;;;;;4.33;90.72;96943.28;5068358;28;20424;-89
2021/04/12 09:03:35;;;;;;;18.53;12.50;;;;;;;4.16;90.27;96955.91;5064241;28;20522;-90
2021/04/12 09:06:37;;;;;;;21.43;14.90;;;;;;;4.40;90.85;96960.78;5042496;28;20471;-90
2021/04/12 09:12:52;;;;;;;18.83;13.13;;;;;;;4.50;89.32;96968.09;5070547;28;20468;-93
2021/04/12 09:16:13;;;;;;;17.83;14.13;;;;;;;4.51;88.74;96961.53;5065517;28;20907;-89
2021/04/12 09:19:21;;;;;;;17.03;12.70;;;;;;;4.72;89.00;96973.47;5074945;28;20454;-91
2021/04/12 09:22:13;;;;;;;19.80;14.03;;;;;;;4.82;88.35;96973.97;5038753;28;20484;-91
2021/04/12 09:25:03;;;;;;;17.13;11.90;;;;;;;5.03;88.25;96975.16;5076192;28;20431;-94
2021/04/12 09:28:01;;;;;;;20.70;12.30;;;;;;;4.67;88.55;96979.53;5074291;28;20456;-91
2021/04/12 09:31:18;;;;;;;21.90;13.20;;;;;;;4.86;87.93;96985.13;5067915;28;20445;-92
2021/04/12 09:34:26;;;;;;;19.83;11.57;;;;;;;4.74;86.02;96989.00;5073574;28;20530;-94
2021/04/12 09:37:27;;;;;;;17.33;11.80;;;;;;;4.65;85.17;96991.91;5066561;28;20660;-90
2021/04/12 09:40:25;;;;;;;23.83;11.87;;;;;;;4.64;85.81;96988.50;5062211;28;20560;-89
2021/04/12 09:43:11;;;;;;;13.77;10.40;;;;;;;4.73;84.88;96990.94;5022173;28;20469;-92
2021/04/12 09:46:11;;;;;;;17.60;11.37;;;;;;;4.92;85.46;96993.16;5063925;28;20478;-91
2021/04/12 09:49:22;;;;;;;14.97;10.93;;;;;;;5.07;83.31;96990.97;5060644;28;20827;-88
2021/04/12 09:52:05;;;;;;;11.97;8.90;;;;;;;5.24;81.27;96992.41;5063907;28;20534;-92
2021/04/12 09:55:09;;;;;;;11.20;8.70;;;;;;;5.36;80.36;97007.22;5138821;27;20528;-91
2021/04/12 09:58:12;;;;;;;10.53;7.70;;;;;;;5.40;80.12;97007.72;5038688;28;20437;-89
2021/04/12 10:00:50;;;;;;;25.43;9.60;;;;;;;5.40;80.75;97009.66;5037439;28;20869;-90
2021/04/12 10:03:53;;;;;;;13.20;8.43;;;;;;;5.40;79.74;97012.31;5036019;28;20521;-91
2021/04/12 10:06:45;;;;;;;10.63;7.97;;;;;;;5.37;81.13;97011.34;5039053;27;20455;-91
2021/04/12 10:09:39;;;;;;;11.33;8.60;;;;;;;5.42;80.50;97023.25;5042079;28;20471;-88
2021/04/12 10:12:38;;;;;;;11.20;7.73;;;;;;;5.47;79.06;97029.84;5034379;28;20491;-87
2021/04/12 10:15:18;;;;;;;12.70;7.23;;;;;;;5.48;77.08;97033.97;5035419;27;20512;-87
2021/04/12 10:17:49;;;;;;;14.53;8.40;;;;;;;5.64;77.06;97031.25;5035475;28;20787;-86
2021/04/12 10:20:24;;;;;;;13.70;6.77;;;;;;;5.56;74.84;97037.59;5034541;28;20492;-88
2021/04/12 10:23:11;;;;;;;12.70;7.07;;;;;;;5.65;75.75;97034.66;5035902;28;20487;-86
2021/04/12 10:25:47;;;;;;;12.17;5.70;;;;;;;5.60;74.51;97038.81;5050559;28;20414;-89
2021/04/12 10:28:20;;;;;;;8.10;6.17;;;;;;;5.79;75.93;97028.31;5051081;27;20414;-88
2021/04/12 10:30:56;;;;;;;6.83;6.13;;;;;;;5.66;73.96;97028.09;5050951;28;20515;-93
2021/04/12 10:33:36;;;;;;;10.33;6.63;;;;;;;5.83;76.20;97020.75;5039308;28;20482;-88
2021/04/12 10:36:07;;;;;;;8.90;6.10;;;;;;;5.90;76.18;97026.34;5036740;27;20497;-89
2021/04/12 10:38:37;;;;;;;8.43;5.47;;;;;;;6.23;71.84;97025.50;5036116;28;20416;-92
2021/04/12 10:41:26;;;;;;;8.93;4.50;;;;;;;6.29;68.89;97028.88;5040268;27;20436;-93
2021/04/12 10:44:08;;;;;;;9.10;4.50;;;;;;;5.97;66.35;97029.75;5040510;28;20410;-91
2021/04/12 10:46:47;;;;;;;11.23;4.63;;;;;;;6.05;68.22;97026.06;5041933;27;20419;-92
2021/04/12 10:49:21;;;;;;;5.80;4.17;;;;;;;6.08;68.38;97025.06;5039636;27;20576;-92
2021/04/12 10:51:54;;;;;;;9.43;4.27;;;;;;;6.13;64.30;97026.28;5039582;28;20473;-90
2021/04/12 10:54:51;;;;;;;4.43;3.93;;;;;;;6.48;62.42;97012.97;5038292;27;20466;-90
2021/04/12 10:57:32;;;;;;;8.73;4.40;;;;;;;6.76;63.13;97015.47;5039428;28;20372;-91
2021/04/12 11:00:26;;;;;;;8.90;4.27;;;;;;;6.89;62.81;97016.31;5038819;28;20455;-88
2021/04/12 11:03:39;;;;;;;8.50;5.13;;;;;;;6.68;62.47;97017.22;5044682;27;20430;-90
2021/04/12 11:06:15;;;;;;;5.40;3.63;;;;;;;6.78;64.08;97029.81;5017986;28;20491;-90
2021/04/12 11:08:59;;;;;;;8.20;3.87;;;;;;;6.91;63.12;97032.66;5026397;28;20433;-93
2021/04/12 11:11:32;;;;;;;9.03;4.37;;;;;;;6.83;62.57;97031.72;5022633;28;20531;-89
2021/04/12 11:14:09;;;;;;;4.80;3.20;;;;;;;6.97;61.26;97040.66;5022505;28;20481;-90
2021/04/12 11:16:43;;;;;;;5.80;3.43;;;;;;;6.73;61.03;97032.56;5022387;28;20446;-92
2021/04/12 11:19:27;;;;;;;4.30;3.10;;;;;;;6.59;62.91;97030.91;5022748;28;20436;-90
2021/04/12 11:22:06;;;;;;;5.43;3.60;;;;;;;6.52;62.69;97040.22;5023577;28;20423;-90
2021/04/12 11:24:43;;;;;;;5.00;3.80;;;;;;;6.47;63.54;97039.03;5031122;28;20419;-93
2021/04/12 11:28:04;;;;;;;5.50;3.70;;;;;;;6.39;63.02;97035.41;5029175;28;20425;-91
2021/04/12 11:34:09;;;;;;;4.07;3.17;;;;;;;6.98;63.90;97036.78;5036948;28;20542;-95
2021/04/12 11:36:48;;;;;;;6.03;3.17;;;;;;;7.14;62.10;97040.56;5025511;28;20498;-90
2021/04/12 11:39:19;;;;;;;7.93;3.10;;;;;;;6.87;60.09;97042.19;5021553;28;20436;-90
2021/04/12 11:42:00;;;;;;;10.13;4.70;;;;;;;6.95;60.90;97037.78;5023340;28;20482;-89
2021/04/12 11:44:46;;;;;;;7.93;3.23;;;;;;;6.87;61.02;97042.94;5026812;28;20436;-90
2021/04/12 11:47:26;;;;;;;4.13;2.63;;;;;;;6.84;62.45;97045.88;5026527;28;20492;-89
2021/04/12 11:50:10;;;;;;;10.80;4.63;;;;;;;6.89;62.58;97050.50;5027905;28;20380;-87
2021/04/12 11:52:49;;;;;;;4.10;3.70;;;;;;;6.57;58.79;97044.81;5023533;28;20501;-89
2021/04/12 11:55:25;;;;;;;10.20;2.47;;;;;;;6.90;58.40;97044.63;5020213;27;20989;-87
2021/04/12 11:57:59;;;;;;;3.37;2.43;;;;;;;7.10;56.83;97048.13;5024968;28;20466;-89
2021/04/12 12:00:30;;;;;;;4.97;2.70;;;;;;;7.34;56.75;97048.19;5019594;28;20494;-89
2021/04/12 12:03:23;;;;;;;5.87;2.70;;;;;;;7.62;55.74;97043.28;5020425;28;20564;-90
2021/04/12 12:06:07;;;;;;;7.27;3.73;;;;;;;7.73;53.12;97042.47;5021375;28;20411;-90
2021/04/12 12:08:48;;;;;;;3.93;2.53;;;;;;;7.63;53.30;97042.06;5020793;28;20901;-87
2021/04/12 12:11:26;;;;;;;5.40;2.50;;;;;;;7.62;54.28;97045.97;5018324;28;20510;-85
2021/04/12 12:13:57;;;;;;;4.37;2.20;;;;;;;7.91;52.20;97057.91;5020136;28;20443;-88
2021/04/12 12:16:27;;;;;;;4.43;2.40;;;;;;;7.58;52.55;97047.50;5018425;28;20923;-87
2021/04/12 12:18:59;;;;;;;4.30;2.40;;;;;;;7.45;53.29;97040.78;5019321;28;20421;-87
2021/04/12 12:21:34;;;;;;;6.93;2.87;;;;;;;7.21;53.90;97045.34;5019094;28;20440;-92
2021/04/12 12:24:11;;;;;;;5.77;2.77;;;;;;;7.17;56.73;97044.94;5021523;28;20478;-90
2021/04/12 12:27:00;;;;;;;3.33;1.77;;;;;;;7.31;53.73;97047.22;5022926;28;20915;-93
2021/04/12 12:29:33;;;;;;;4.40;2.43;;;;;;;7.18;54.75;97049.03;5027363;28;20532;-91
2021/04/12 12:32:32;;;;;;;5.57;3.00;;;;;;;6.99;54.72;97051.63;5022229;28;20475;-88
2021/04/12 12:35:14;;;;;;;4.83;2.80;;;;;;;7.10;56.08;97054.25;5020063;28;20952;-88
2021/04/12 12:38:01;;;;;;;5.30;2.47;;;;;;;7.26;53.83;97061.44;5020581;28;20470;-89
2021/04/12 12:40:38;;;;;;;8.53;2.80;;;;;;;7.30;54.16;97059.19;5020171;28;20461;-89
2021/04/12 12:43:09;;;;;;;4.07;2.57;;;;;;;7.19;55.72;97064.66;5029074;28;20468;-87
2021/04/12 12:45:39;;;;;;;5.00;2.70;;;;;;;7.27;55.08;97065.56;5028878;28;20413;-87
2021/04/12 12:48:18;;;;;;;6.67;2.63;;;;;;;7.12;54.54;97067.16;5019218;28;20403;-87
2021/04/12 12:50:50;;;;;;;4.57;2.60;;;;;;;7.13;53.29;97069.34;5019004;28;20514;-87
2021/04/12 12:53:22;;;;;;;8.83;2.50;;;;;;;7.01;54.94;97057.22;5018600;28;20545;-87
2021/04/12 12:55:52;;;;;;;2.53;2.33;;;;;;;7.20;53.71;97052.72;5017922;28;20517;-86
2021/04/12 12:58:23;;;;;;;4.90;2.20;;;;;;;7.39;53.90;97050.81;5020855;28;20484;-85
2021/04/12 13:00:52;;;;;;;7.33;2.80;;;;;;;7.53;54.94;97059.75;5034393;28;20456;-85
2021/04/12 13:03:26;;;;;;;4.90;2.27;;;;;;;7.71;52.78;97039.53;5033170;28;20427;-85
2021/04/12 13:05:54;;;;;;;3.60;1.70;;;;;;;7.84;49.25;97061.16;5034567;28;20482;-86
2021/04/12 13:08:26;;;;;;;3.20;1.20;;;;;;;7.88;48.65;97059.66;5021377;28;20411;-85
2021/04/12 13:10:54;;;;;;;2.67;1.93;;;;;;;7.90;47.69;97059.13;5017877;28;20468;-85
2021/04/12 13:13:28;;;;;;;3.83;1.40;;;;;;;8.12;47.59;97056.22;5017467;28;21123;-86
2021/04/12 13:15:56;;;;;;;3.60;1.33;;;;;;;8.58;47.18;97057.88;5018117;28;20472;-86
2021/04/12 13:18:32;;;;;;;4.80;1.40;;;;;;;8.99;47.33;97046.81;5034295;28;20411;-87